Time;durP1;ratioP1;P1;durP2;ratioP2;P2;SDS_P1;SDS_P2;PMS_P1;PMS_P2;Temp;Humidity;BMP_temperature;BMP_pressure;BME280_temperature;BME280_humidity;BME280_pressure;Samples;Min_cycle;Max_cycle;Signal;HPM_P1;HPM_P2
2021/09/11 00:01:43;;;;;;;7.30;3.87;;;;;;;17.04;100.00;100886.84;5076564;28;20970;-74
2021/09/11 00:04:10;;;;;;;8.67;5.10;;;;;;;16.95;100.00;100885.34;5076937;28;20441;-73
2021/09/11 00:06:36;;;;;;;12.30;5.40;;;;;;;16.92;100.00;100884.09;5076939;28;20441;-72
2021/09/11 00:09:03;;;;;;;6.07;4.77;;;;;;;16.89;100.00;100890.22;5076758;28;20487;-72
2021/09/11 00:11:30;;;;;;;8.07;4.40;;;;;;;16.90;100.00;100878.94;5076751;28;20441;-73
2021/09/11 00:13:56;;;;;;;8.57;4.63;;;;;;;16.92;100.00;100877.81;5076728;28;20448;-72
2021/09/11 00:16:23;;;;;;;9.50;4.93;;;;;;;16.92;100.00;100886.84;5076714;28;20441;-72
2021/09/11 00:18:51;;;;;;;5.80;4.20;;;;;;;16.94;100.00;100886.50;5076321;28;20951;-72
2021/09/11 00:21:17;;;;;;;6.47;4.47;;;;;;;16.91;100.00;100890.72;5076296;28;20803;-73
2021/09/11 00:23:45;;;;;;;7.10;4.50;;;;;;;16.85;100.00;100881.09;5076646;28;20448;-73
2021/09/11 00:26:11;;;;;;;7.00;4.33;;;;;;;16.80;100.00;100890.31;5076339;28;20457;-73
2021/09/11 00:28:38;;;;;;;8.50;4.83;;;;;;;16.79;100.00;100888.72;5076388;28;20508;-74
2021/09/11 00:31:04;;;;;;;4.30;3.40;;;;;;;16.79;100.00;100888.72;5076483;28;20857;-74
2021/09/11 00:33:31;;;;;;;7.53;5.30;;;;;;;16.78;100.00;100889.84;5076386;28;20461;-74
2021/09/11 00:35:59;;;;;;;9.00;4.23;;;;;;;16.78;100.00;100889.06;5076325;28;20475;-73
2021/09/11 00:38:25;;;;;;;5.43;3.90;;;;;;;16.78;100.00;100889.84;5076379;28;20441;-73
2021/09/11 00:40:52;;;;;;;8.80;3.67;;;;;;;16.73;100.00;100890.03;5076011;28;20939;-73
2021/09/11 00:43:22;;;;;;;7.47;4.70;;;;;;;16.74;100.00;100891.66;5076155;28;20472;-73
2021/09/11 00:45:49;;;;;;;7.73;4.70;;;;;;;16.74;100.00;100893.59;5076123;28;20469;-74
2021/09/11 00:48:16;;;;;;;8.97;4.93;;;;;;;16.71;100.00;100896.97;5075846;28;20477;-73
2021/09/11 00:50:43;;;;;;;13.50;5.30;;;;;;;16.71;100.00;100897.75;5076198;28;20827;-74
2021/09/11 00:53:13;;;;;;;8.33;4.67;;;;;;;16.69;100.00;100897.31;5076011;28;20465;-73
2021/09/11 00:55:40;;;;;;;10.40;5.40;;;;;;;16.71;100.00;100895.03;5075950;28;20445;-74
2021/09/11 00:58:06;;;;;;;7.97;4.50;;;;;;;16.71;100.00;100892.28;5075961;28;20445;-73
2021/09/11 01:00:33;;;;;;;6.93;5.03;;;;;;;16.70;100.00;100893.44;5075996;28;20448;-73
2021/09/11 01:02:59;;;;;;;5.50;3.43;;;;;;;16.70;100.00;100898.91;5075799;28;20476;-73
2021/09/11 01:05:26;;;;;;;9.23;5.87;;;;;;;16.67;100.00;100899.56;5076086;28;20483;-73
2021/09/11 01:07:52;;;;;;;7.40;4.57;;;;;;;16.62;100.00;100894.28;5075788;28;20445;-71
2021/09/11 01:10:20;;;;;;;6.80;4.27;;;;;;;16.66;100.00;100900.69;5075913;28;20489;-70
2021/09/11 01:12:48;;;;;;;4.20;3.60;;;;;;;16.67;100.00;100896.81;5075607;28;20461;-71
2021/09/11 01:15:16;;;;;;;12.80;5.40;;;;;;;16.67;100.00;100891.34;5075722;28;20449;-73
2021/09/11 01:17:45;;;;;;;7.40;4.97;;;;;;;16.64;100.00;100902.97;5075486;28;20446;-72
2021/09/11 01:20:12;;;;;;;7.27;5.20;;;;;;;16.59;100.00;100901.22;5075551;28;20445;-73
2021/09/11 01:22:39;;;;;;;8.33;4.90;;;;;;;16.59;100.00;100912.16;5075351;28;20473;-73
2021/09/11 01:25:10;;;;;;;9.03;4.40;;;;;;;16.54;100.00;100909.63;5075454;28;20441;-71
2021/09/11 01:27:37;;;;;;;12.97;6.03;;;;;;;16.49;100.00;100911.78;5075698;28;20433;-73
2021/09/11 01:30:06;;;;;;;6.83;4.53;;;;;;;16.42;100.00;100916.97;5075236;28;20477;-72
2021/09/11 01:32:35;;;;;;;12.03;5.70;;;;;;;16.37;100.00;100918.75;5074690;28;20477;-72
2021/09/11 01:35:01;;;;;;;10.93;4.90;;;;;;;16.34;100.00;100916.69;5075300;28;20445;-73
2021/09/11 01:37:28;;;;;;;9.07;5.47;;;;;;;16.37;100.00;100913.28;5075200;28;20430;-73
2021/09/11 01:39:54;;;;;;;8.50;5.47;;;;;;;16.38;100.00;100908.66;5074886;28;20938;-71
2021/09/11 01:42:24;;;;;;;6.20;4.23;;;;;;;16.42;100.00;100906.81;5075081;28;20461;-72
2021/09/11 01:44:52;;;;;;;7.23;5.20;;;;;;;16.40;100.00;100912.63;5075310;28;20448;-73
2021/09/11 01:47:18;;;;;;;5.80;4.70;;;;;;;16.39;100.00;100913.78;5075056;28;20442;-72
2021/09/11 01:49:45;;;;;;;11.17;5.60;;;;;;;16.42;100.00;100911.50;5075133;28;20481;-72
2021/09/11 01:52:12;;;;;;;9.70;5.93;;;;;;;16.42;100.00;100912.28;5074846;28;20457;-72
2021/09/11 01:54:40;;;;;;;9.90;6.60;;;;;;;16.40;100.00;100923.56;5074857;28;20491;-72
2021/09/11 01:57:08;;;;;;;10.37;6.47;;;;;;;16.46;100.00;100915.16;5074783;28;20445;-73
2021/09/11 01:59:35;;;;;;;9.40;5.27;;;;;;;16.47;100.00;100922.22;5074874;28;20443;-73
2021/09/11 02:02:02;;;;;;;10.70;6.10;;;;;;;16.48;100.00;100912.91;5074494;28;20468;-74
2021/09/11 02:04:29;;;;;;;8.80;5.10;;;;;;;16.50;100.00;100921.56;5074429;28;20441;-72
2021/09/11 02:06:55;;;;;;;7.47;4.73;;;;;;;16.49;100.00;100911.78;5073850;28;20931;-71
2021/09/11 02:09:22;;;;;;;11.80;5.47;;;;;;;16.50;100.00;100916.91;5074570;28;20485;-73
2021/09/11 02:11:48;;;;;;;11.30;6.50;;;;;;;16.51;100.00;100915.78;5074407;28;20466;-73
2021/09/11 02:14:15;;;;;;;11.47;6.70;;;;;;;16.53;100.00;100916.25;5074158;28;20962;-70
2021/09/11 02:16:43;;;;;;;14.73;6.20;;;;;;;16.57;100.00;100916.38;5074432;28;20448;-73
2021/09/11 02:19:09;;;;;;;10.77;5.67;;;;;;;16.59;100.00;100916.84;5074410;28;20440;-73
2021/09/11 02:21:36;;;;;;;8.57;5.60;;;;;;;16.63;100.00;100917.78;5074180;28;20447;-73
2021/09/11 02:24:02;;;;;;;16.30;7.83;;;;;;;16.71;100.00;100913.38;5074279;28;20418;-72
2021/09/11 02:26:29;;;;;;;18.17;7.47;;;;;;;16.77;100.00;100910.13;5074228;28;20441;-73
2021/09/11 02:28:55;;;;;;;14.63;7.70;;;;;;;16.81;100.00;100913.78;5073946;28;21025;-73
2021/09/11 02:31:22;;;;;;;12.97;6.40;;;;;;;16.87;100.00;100917.13;5074140;28;20453;-73
2021/09/11 02:33:50;;;;;;;10.83;7.47;;;;;;;16.88;100.00;100914.06;5073836;28;20939;-73
2021/09/11 02:36:17;;;;;;;13.83;6.67;;;;;;;16.91;100.00;100909.88;5073967;28;20437;-73
2021/09/11 02:38:44;;;;;;;12.47;6.90;;;;;;;16.94;100.00;100920.13;5074044;28;20445;-73
2021/09/11 02:41:10;;;;;;;13.97;9.00;;;;;;;16.94;100.00;100916.59;5073863;28;20448;-71
2021/09/11 02:43:37;;;;;;;15.40;8.10;;;;;;;16.90;100.00;100911.78;5073854;28;20469;-72
2021/09/11 02:46:03;;;;;;;13.00;7.93;;;;;;;16.97;100.00;100904.97;5073908;28;20469;-72
2021/09/11 02:48:30;;;;;;;12.23;8.50;;;;;;;16.97;100.00;100905.78;5073878;28;20442;-72
2021/09/11 02:50:58;;;;;;;13.77;8.03;;;;;;;16.99;100.00;100913.63;5073795;28;20814;-73
2021/09/11 02:53:24;;;;;;;16.00;7.93;;;;;;;17.02;100.00;100918.44;5073703;28;20473;-72
2021/09/11 02:55:51;;;;;;;19.87;9.83;;;;;;;17.02;100.00;100913.78;5073810;28;20441;-72
2021/09/11 02:58:22;;;;;;;14.40;8.70;;;;;;;17.10;100.00;100917.56;5073338;28;20793;-72
2021/09/11 03:00:48;;;;;;;12.73;7.90;;;;;;;17.15;100.00;100920.88;5073703;28;20773;-74
2021/09/11 03:03:15;;;;;;;20.50;8.70;;;;;;;17.19;100.00;100920.22;5073564;28;20488;-73
2021/09/11 03:05:41;;;;;;;18.00;9.43;;;;;;;17.22;100.00;100922.28;5073623;28;20452;-72
2021/09/11 03:08:09;;;;;;;12.47;7.50;;;;;;;17.28;100.00;100916.25;5073778;28;20441;-73
2021/09/11 03:10:35;;;;;;;18.00;9.90;;;;;;;17.28;100.00;100916.25;5073473;28;20489;-73
2021/09/11 03:13:02;;;;;;;14.03;8.37;;;;;;;17.28;100.00;100913.53;5073462;28;20457;-74
2021/09/11 03:15:29;;;;;;;14.00;8.90;;;;;;;17.27;100.00;100917.41;5073510;28;20442;-74
2021/09/11 03:17:55;;;;;;;15.47;8.57;;;;;;;17.28;100.00;100909.97;5073368;28;20441;-73
2021/09/11 03:20:22;;;;;;;16.20;9.77;;;;;;;17.25;100.00;100911.44;5072533;28;20449;-72
2021/09/11 03:22:48;;;;;;;12.53;7.60;;;;;;;17.24;100.00;100915.34;5073075;28;20489;-71
2021/09/11 03:25:16;;;;;;;14.77;8.20;;;;;;;17.20;100.00;100908.13;5073316;28;20444;-71
2021/09/11 03:27:42;;;;;;;11.83;6.77;;;;;;;17.12;100.00;100907.88;5073305;28;20446;-72
2021/09/11 03:30:09;;;;;;;14.10;7.90;;;;;;;17.11;100.00;100910.94;5073192;28;20488;-70
2021/09/11 03:32:36;;;;;;;10.73;7.30;;;;;;;17.06;100.00;100922.13;5073328;28;20875;-72
2021/09/11 03:35:03;;;;;;;9.93;6.40;;;;;;;17.11;100.00;100924.63;5073240;28;20446;-72
2021/09/11 03:37:29;;;;;;;13.97;8.77;;;;;;;17.12;100.00;100923.50;5073232;28;20434;-73
2021/09/11 03:39:55;;;;;;;13.23;7.77;;;;;;;17.14;100.00;100915.75;5073179;28;20444;-72
2021/09/11 03:42:23;;;;;;;14.67;8.80;;;;;;;17.14;100.00;100924.78;5073153;28;20473;-73
2021/09/11 03:44:50;;;;;;;14.13;7.50;;;;;;;17.15;100.00;100920.09;5073117;28;20437;-72
2021/09/11 03:47:16;;;;;;;15.30;7.37;;;;;;;17.17;100.00;100925.22;5073112;28;20448;-72
2021/09/11 03:49:43;;;;;;;15.27;6.80;;;;;;;17.18;100.00;100927.66;5072863;28;20500;-72
2021/09/11 03:52:09;;;;;;;12.50;7.60;;;;;;;17.22;100.00;100923.09;5072700;28;20978;-72
2021/09/11 03:54:35;;;;;;;16.70;7.90;;;;;;;17.27;100.00;100924.81;5072740;28;20947;-71
2021/09/11 03:57:02;;;;;;;14.77;9.00;;;;;;;17.30;100.00;100924.13;5073051;28;20468;-73
2021/09/11 03:59:30;;;;;;;16.50;10.60;;;;;;;17.36;100.00;100923.59;5072646;28;20930;-73
2021/09/11 04:01:56;;;;;;;11.73;8.20;;;;;;;17.43;100.00;100928.50;5072864;28;20457;-72
2021/09/11 04:04:23;;;;;;;17.60;9.63;;;;;;;17.49;100.00;100926.34;5072943;28;20441;-72
2021/09/11 04:06:49;;;;;;;13.13;8.80;;;;;;;17.54;100.00;100921.47;5072544;28;20461;-73
2021/09/11 04:09:15;;;;;;;18.07;9.33;;;;;;;17.61;100.00;100923.63;5072868;28;20487;-73
2021/09/11 04:11:42;;;;;;;19.70;9.90;;;;;;;17.69;100.00;100919.97;5072852;28;20461;-73
2021/09/11 04:14:08;;;;;;;11.90;8.17;;;;;;;17.75;100.00;100935.09;5072816;28;20452;-72
2021/09/11 04:16:36;;;;;;;15.80;8.60;;;;;;;17.83;100.00;100947.88;5072867;28;20925;-73
2021/09/11 04:19:02;;;;;;;15.10;9.27;;;;;;;17.88;100.00;100936.72;5072843;28;20441;-72
2021/09/11 04:21:29;;;;;;;17.40;10.03;;;;;;;17.93;100.00;100941.19;5072603;28;20448;-73
2021/09/11 04:23:55;;;;;;;17.90;10.90;;;;;;;17.95;100.00;100940.81;5072564;28;20926;-73
2021/09/11 04:26:22;;;;;;;14.67;9.40;;;;;;;18.00;100.00;100940.59;5072841;28;20441;-74
2021/09/11 04:28:48;;;;;;;13.20;8.77;;;;;;;18.00;100.00;100941.38;5072675;28;20441;-73
2021/09/11 04:31:15;;;;;;;17.20;10.23;;;;;;;18.00;100.00;100946.06;5075176;28;20485;-72
2021/09/11 04:33:42;;;;;;;18.43;9.87;;;;;;;18.03;100.00;100946.19;5076322;28;20465;-73
2021/09/11 04:36:09;;;;;;;13.87;7.60;;;;;;;18.05;100.00;100945.84;5076393;28;20440;-73
2021/09/11 04:38:36;;;;;;;13.00;9.13;;;;;;;18.04;100.00;100947.00;5076056;28;20793;-74
2021/09/11 04:41:02;;;;;;;15.10;9.67;;;;;;;18.09;100.00;100953.03;5076296;28;20447;-72
2021/09/11 04:43:29;;;;;;;13.27;8.03;;;;;;;18.11;100.00;100952.72;5076066;28;20467;-72
2021/09/11 04:45:57;;;;;;;18.33;9.57;;;;;;;18.13;100.00;100950.41;5076296;28;20448;-73
2021/09/11 04:48:23;;;;;;;19.03;10.17;;;;;;;18.16;100.00;100955.22;5076236;28;20511;-73
2021/09/11 04:50:51;;;;;;;13.50;9.23;;;;;;;18.17;100.00;100956.81;5076033;28;20481;-73
2021/09/11 04:53:17;;;;;;;14.33;9.33;;;;;;;18.21;100.00;100956.94;5075716;28;20983;-73
2021/09/11 04:55:44;;;;;;;12.67;6.70;;;;;;;18.23;100.00;100958.16;5076001;28;20440;-73
2021/09/11 04:58:10;;;;;;;23.00;9.73;;;;;;;18.23;100.00;100960.91;5076033;28;20460;-73
2021/09/11 05:00:37;;;;;;;14.73;9.23;;;;;;;18.28;100.00;100963.44;5075999;28;20441;-73
2021/09/11 05:03:03;;;;;;;14.63;7.40;;;;;;;18.34;100.00;100967.56;5075829;28;20461;-72
2021/09/11 05:05:30;;;;;;;12.40;7.80;;;;;;;18.35;100.00;100962.84;5075872;28;20444;-73
2021/09/11 05:07:58;;;;;;;17.33;8.50;;;;;;;18.44;100.00;100965.47;5075487;28;20859;-73
2021/09/11 05:10:25;;;;;;;16.93;9.23;;;;;;;18.50;100.00;100969.56;5075665;28;20484;-73
2021/09/11 05:12:52;;;;;;;16.60;9.27;;;;;;;18.56;100.00;100977.25;5075610;28;20473;-72
2021/09/11 05:15:19;;;;;;;19.00;9.87;;;;;;;18.60;100.00;100980.09;5075256;28;20953;-72
2021/09/11 05:17:46;;;;;;;17.00;9.47;;;;;;;18.64;100.00;100975.53;5075595;28;20579;-73
2021/09/11 05:20:13;;;;;;;14.20;7.77;;;;;;;18.66;100.00;100989.69;5075533;28;20552;-72
2021/09/11 05:22:41;;;;;;;14.33;9.20;;;;;;;18.72;100.00;100982.81;5075091;28;20485;-71
2021/09/11 05:25:10;;;;;;;16.17;9.20;;;;;;;18.74;100.00;100977.81;5075494;28;20808;-71
2021/09/11 05:27:39;;;;;;;15.17;8.97;;;;;;;18.78;100.00;100992.44;5075476;28;20483;-71
2021/09/11 05:30:07;;;;;;;13.30;8.00;;;;;;;18.84;100.00;100984.75;5074937;28;21054;-72
2021/09/11 05:32:33;;;;;;;12.73;8.40;;;;;;;18.91;100.00;100995.97;5075312;28;20467;-72
2021/09/11 05:34:59;;;;;;;21.50;10.10;;;;;;;18.94;100.00;100989.75;5075222;28;20445;-69
2021/09/11 05:37:26;;;;;;;14.57;10.27;;;;;;;18.97;100.00;100985.53;5075201;28;20438;-69
2021/09/11 05:39:52;;;;;;;18.43;9.53;;;;;;;19.00;100.00;100993.06;5075116;28;20506;-72
2021/09/11 05:42:20;;;;;;;15.60;8.20;;;;;;;19.02;100.00;100993.50;5075496;28;20536;-71
2021/09/11 05:44:47;;;;;;;14.87;7.50;;;;;;;19.05;100.00;100995.56;5075006;28;20473;-69
2021/09/11 05:47:13;;;;;;;14.20;9.00;;;;;;;19.07;100.00;100998.75;5074974;28;20453;-71
2021/09/11 05:49:39;;;;;;;16.50;9.47;;;;;;;19.09;100.00;101001.97;5074998;28;20818;-70
2021/09/11 05:52:07;;;;;;;15.63;9.90;;;;;;;19.11;100.00;101005.16;5074512;28;20478;-72
2021/09/11 05:54:33;;;;;;;23.90;9.83;;;;;;;19.05;100.00;101004.59;5074520;28;20939;-72
2021/09/11 05:56:59;;;;;;;14.30;8.63;;;;;;;19.05;100.00;101001.84;5074708;28;20448;-72
2021/09/11 05:59:27;;;;;;;17.20;9.60;;;;;;;19.09;100.00;101002.75;5074770;28;20444;-71
2021/09/11 06:01:54;;;;;;;14.67;8.63;;;;;;;19.11;100.00;101005.94;5074603;28;20468;-72
2021/09/11 06:04:21;;;;;;;15.93;9.83;;;;;;;19.15;100.00;101006.84;5074780;28;20441;-71
2021/09/11 06:06:47;;;;;;;21.27;9.40;;;;;;;19.19;100.00;101003.41;5074640;28;20433;-71
2021/09/11 06:09:14;;;;;;;22.83;7.30;;;;;;;19.23;100.00;101010.59;5074682;28;20511;-72
2021/09/11 06:11:40;;;;;;;16.97;7.60;;;;;;;19.26;100.00;101009.91;5074401;28;20488;-72
2021/09/11 06:14:07;;;;;;;15.60;8.17;;;;;;;19.29;100.00;101022.94;5074111;28;20823;-72
2021/09/11 06:16:34;;;;;;;15.37;7.20;;;;;;;19.30;100.00;101018.25;5074733;28;20441;-71
2021/09/11 06:19:01;;;;;;;16.27;7.73;;;;;;;19.35;100.00;101015.25;5074298;28;20444;-72
2021/09/11 06:21:27;;;;;;;14.23;9.40;;;;;;;19.38;100.00;101020.84;5074320;28;20452;-72
2021/09/11 06:23:54;;;;;;;16.53;8.50;;;;;;;19.45;100.00;101027.69;5074002;28;20430;-72
2021/09/11 06:26:20;;;;;;;12.60;7.83;;;;;;;19.52;100.00;101027.88;5074250;28;20452;-75
2021/09/11 06:28:47;;;;;;;13.90;8.17;;;;;;;19.61;100.00;101028.53;5074135;28;20445;-74
2021/09/11 06:31:13;;;;;;;16.10;8.07;;;;;;;19.64;100.00;101030.59;5074249;28;20484;-73
2021/09/11 06:33:41;;;;;;;13.57;9.03;;;;;;;19.70;100.00;101031.97;5074052;28;20457;-73
2021/09/11 06:36:11;;;;;;;18.10;8.87;;;;;;;19.77;100.00;101031.34;5074132;28;20430;-72
2021/09/11 06:38:37;;;;;;;19.53;10.70;;;;;;;19.80;100.00;101034.19;5074110;28;20450;-72
2021/09/11 06:41:04;;;;;;;15.03;8.70;;;;;;;19.86;100.00;101040.22;5074061;28;20786;-72
2021/09/11 06:43:30;;;;;;;15.40;9.13;;;;;;;19.89;100.00;101040.31;5073927;28;20457;-72
2021/09/11 06:45:57;;;;;;;14.40;8.70;;;;;;;19.95;100.00;101040.06;5073886;28;20440;-72
2021/09/11 06:48:23;;;;;;;16.27;8.73;;;;;;;20.00;100.00;101035.09;5074284;28;20454;-72
2021/09/11 06:50:51;;;;;;;13.70;7.13;;;;;;;20.05;100.00;101025.75;5073677;28;20481;-72
2021/09/11 06:53:17;;;;;;;12.67;7.30;;;;;;;20.08;100.00;101030.56;5073563;28;20465;-72
2021/09/11 06:55:44;;;;;;;15.27;8.77;;;;;;;20.13;100.00;101031.09;5073671;28;20433;-73
2021/09/11 06:58:10;;;;;;;11.40;7.20;;;;;;;20.16;100.00;101033.13;5073621;28;20452;-72
2021/09/11 07:00:37;;;;;;;17.17;7.27;;;;;;;20.17;100.00;101022.94;5073669;28;20860;-72
2021/09/11 07:03:03;;;;;;;12.90;7.73;;;;;;;20.25;100.00;101035.72;5073508;28;20465;-72
2021/09/11 07:05:30;;;;;;;14.23;7.23;;;;;;;20.32;100.00;101037.81;5073190;28;20456;-72
2021/09/11 07:07:57;;;;;;;11.40;8.43;;;;;;;20.41;100.00;101041.22;5073531;28;20441;-71
2021/09/11 07:10:24;;;;;;;14.27;7.67;;;;;;;20.46;100.00;101048.41;5073437;28;20484;-72
2021/09/11 07:12:51;;;;;;;12.33;8.17;;;;;;;20.51;100.00;101043.44;5073483;28;20869;-71
2021/09/11 07:15:17;;;;;;;13.67;9.03;;;;;;;20.54;100.00;101045.50;5073371;28;20452;-71
2021/09/11 07:17:44;;;;;;;9.60;6.17;;;;;;;20.58;100.00;101049.09;5073287;28;20429;-72
2021/09/11 07:20:11;;;;;;;10.53;6.63;;;;;;;20.62;100.00;101050.00;5073365;28;20792;-71
2021/09/11 07:22:38;;;;;;;13.03;7.10;;;;;;;20.66;100.00;101055.59;5072924;28;20487;-71
2021/09/11 07:25:07;;;;;;;12.63;6.70;;;;;;;20.61;100.00;101050.34;5073158;28;20460;-71
2021/09/11 07:27:34;;;;;;;9.50;6.50;;;;;;;20.68;100.00;101060.75;5073033;28;20812;-71
2021/09/11 07:30:00;;;;;;;10.43;6.60;;;;;;;20.75;100.00;101063.66;5073243;28;20444;-71
2021/09/11 07:32:27;;;;;;;10.90;6.60;;;;;;;20.80;100.00;101066.91;5072805;28;21024;-73
2021/09/11 07:34:53;;;;;;;13.30;7.33;;;;;;;20.77;100.00;101064.91;5073243;28;20437;-73
2021/09/11 07:37:20;;;;;;;12.43;6.73;;;;;;;20.71;100.00;101060.81;5073186;28;20445;-73
2021/09/11 07:39:47;;;;;;;10.80;7.40;;;;;;;20.65;100.00;101056.75;5073140;28;20437;-74
2021/09/11 07:42:15;;;;;;;10.47;6.90;;;;;;;20.62;100.00;101061.00;5073396;28;20460;-71
2021/09/11 07:44:41;;;;;;;10.43;6.63;;;;;;;20.56;100.00;101064.41;5072766;28;20957;-71
2021/09/11 07:47:08;;;;;;;9.33;6.50;;;;;;;20.53;100.00;101067.84;5073052;28;20438;-71
2021/09/11 07:49:34;;;;;;;9.70;6.13;;;;;;;20.46;100.00;101067.66;5072753;28;20445;-70
2021/09/11 07:52:01;;;;;;;9.63;6.30;;;;;;;20.43;100.00;101077.44;5072878;28;20497;-70
2021/09/11 07:54:27;;;;;;;15.70;8.93;;;;;;;20.40;100.00;101081.69;5072944;28;20468;-70
2021/09/11 07:56:54;;;;;;;12.90;8.53;;;;;;;20.32;100.00;101073.59;5073013;28;20811;-71
2021/09/11 07:59:22;;;;;;;15.13;7.77;;;;;;;20.22;100.00;101074.94;5072933;28;20449;-71
2021/09/11 08:01:48;;;;;;;13.37;8.27;;;;;;;20.20;100.00;101071.75;5073101;28;20457;-70
2021/09/11 08:04:14;;;;;;;10.60;6.20;;;;;;;20.23;100.00;101082.06;5073222;28;20445;-70
2021/09/11 08:06:41;;;;;;;9.00;6.27;;;;;;;20.26;100.00;101080.53;5076417;28;20437;-70
2021/09/11 08:09:07;;;;;;;10.43;6.63;;;;;;;20.36;100.00;101083.56;5076897;28;20507;-70
2021/09/11 08:11:34;;;;;;;13.73;7.10;;;;;;;20.40;100.00;101087.19;5077024;28;20483;-70
2021/09/11 08:14:02;;;;;;;12.30;7.37;;;;;;;20.41;100.00;101086.03;5077015;28;20445;-70
2021/09/11 08:16:30;;;;;;;12.10;7.60;;;;;;;20.40;100.00;101084.44;5076888;28;20445;-70
2021/09/11 08:18:57;;;;;;;14.87;6.50;;;;;;;20.47;100.00;101088.53;5076987;28;20441;-71
2021/09/11 08:21:23;;;;;;;18.30;7.67;;;;;;;20.51;100.00;101086.69;5076711;28;20444;-70
2021/09/11 08:23:49;;;;;;;11.60;7.10;;;;;;;20.55;100.00;101087.59;5076381;28;20433;-70
2021/09/11 08:26:16;;;;;;;15.10;7.90;;;;;;;20.65;100.00;101085.06;5076667;28;20448;-70
2021/09/11 08:28:43;;;;;;;15.50;7.40;;;;;;;20.73;100.00;101088.81;5076512;28;20437;-71
2021/09/11 08:31:09;;;;;;;14.00;8.40;;;;;;;20.75;100.00;101086.47;5076630;28;20489;-70
2021/09/11 08:33:38;;;;;;;18.43;8.20;;;;;;;20.73;100.00;101093.50;5076293;28;20465;-70
2021/09/11 08:36:05;;;;;;;17.20;8.20;;;;;;;20.86;100.00;101090.28;5075862;28;20934;-68
2021/09/11 08:38:34;;;;;;;21.63;8.70;;;;;;;20.99;100.00;101088.22;5076217;28;20445;-71
2021/09/11 08:41:03;;;;;;;12.70;7.30;;;;;;;21.14;100.00;101086.56;5076244;28;20491;-70
2021/09/11 08:43:29;;;;;;;11.97;7.83;;;;;;;21.21;100.00;101092.25;5076288;28;20469;-70
2021/09/11 08:45:56;;;;;;;18.27;8.80;;;;;;;21.16;100.00;101096.06;5076206;28;20446;-70
2021/09/11 08:48:24;;;;;;;10.80;7.37;;;;;;;21.21;100.00;101092.25;5075787;28;20816;-69
2021/09/11 08:50:52;;;;;;;18.33;8.47;;;;;;;21.18;100.00;101095.72;5076193;28;20473;-71
2021/09/11 08:53:18;;;;;;;10.50;7.00;;;;;;;21.27;100.00;101092.75;5075635;28;20850;-71
2021/09/11 08:55:45;;;;;;;13.77;7.90;;;;;;;21.33;100.00;101099.59;5075534;28;20915;-71
2021/09/11 08:58:11;;;;;;;12.10;8.03;;;;;;;21.37;100.00;101101.25;5075872;28;20445;-70
2021/09/11 09:00:42;;;;;;;11.87;7.37;;;;;;;21.35;100.00;101105.56;5076014;28;20795;-71
2021/09/11 09:03:29;;;;;;;10.80;7.60;;;;;;;21.38;100.00;101111.16;5075710;28;20465;-70
2021/09/11 09:06:10;;;;;;;11.73;7.50;;;;;;;21.47;100.00;101112.88;5075712;28;20482;-70
2021/09/11 09:08:36;;;;;;;10.47;6.10;;;;;;;21.58;100.00;101111.13;5075754;28;20425;-71
2021/09/11 09:11:15;;;;;;;8.17;5.83;;;;;;;21.69;100.00;101112.13;5075570;28;20489;-69
2021/09/11 09:13:50;;;;;;;19.83;10.13;;;;;;;21.73;100.00;101113.00;5075417;28;20465;-70
2021/09/11 09:16:17;;;;;;;7.97;5.80;;;;;;;21.76;100.00;101117.00;5074797;28;20456;-71
2021/09/11 09:18:43;;;;;;;17.40;6.97;;;;;;;21.67;100.00;101115.28;5075237;28;20437;-70
2021/09/11 09:21:17;;;;;;;14.30;7.77;;;;;;;21.72;100.00;101121.66;5074789;28;20497;-69
2021/09/11 09:23:47;;;;;;;9.90;6.80;;;;;;;21.72;100.00;101118.91;5075107;28;20866;-71
2021/09/11 09:26:13;;;;;;;12.70;7.90;;;;;;;21.75;100.00;101116.22;5075344;28;20461;-70
2021/09/11 09:28:40;;;;;;;10.70;7.20;;;;;;;21.70;100.00;101119.28;5075036;28;20826;-70
2021/09/11 09:31:10;;;;;;;9.33;7.60;;;;;;;21.65;100.00;101117.59;5075040;28;20490;-70
2021/09/11 09:33:38;;;;;;;11.47;8.27;;;;;;;21.74;100.00;101122.91;5074905;28;20496;-69
2021/09/11 09:36:05;;;;;;;15.00;8.53;;;;;;;21.72;100.00;101116.94;5075176;28;20453;-70
2021/09/11 09:38:33;;;;;;;13.20;6.93;;;;;;;21.73;99.94;101129.56;5075159;28;20442;-70
2021/09/11 09:40:59;;;;;;;9.20;6.30;;;;;;;21.69;99.09;101117.66;5075042;28;20495;-71
2021/09/11 09:43:31;;;;;;;22.27;6.87;;;;;;;21.75;98.24;101127.25;5074993;28;20492;-70
2021/09/11 09:46:06;;;;;;;11.73;7.27;;;;;;;21.78;99.15;101129.28;5074513;28;20966;-70
2021/09/11 09:48:33;;;;;;;19.60;7.73;;;;;;;21.94;98.61;101129.19;5074860;28;20467;-70
2021/09/11 09:51:04;;;;;;;14.33;8.87;;;;;;;22.09;96.76;101124.72;5074792;28;20531;-70
2021/09/11 09:53:30;;;;;;;11.67;8.00;;;;;;;22.29;95.52;101117.22;5074436;28;20993;-70
2021/09/11 09:55:59;;;;;;;12.67;6.40;;;;;;;22.54;95.53;101118.47;5074453;28;20440;-70
2021/09/11 09:58:25;;;;;;;12.93;6.70;;;;;;;22.77;94.73;101123.16;5075017;28;20437;-70
2021/09/11 10:00:52;;;;;;;9.20;6.13;;;;;;;22.87;93.60;101128.84;5074855;28;20437;-70
2021/09/11 10:03:18;;;;;;;8.33;6.10;;;;;;;22.89;90.49;101122.97;5074690;28;20457;-70
2021/09/11 10:05:50;;;;;;;8.47;6.33;;;;;;;22.97;90.17;101116.38;5074789;28;20448;-70
2021/09/11 10:08:19;;;;;;;7.00;5.53;;;;;;;23.17;90.40;101122.59;5074613;28;20426;-71
2021/09/11 10:10:48;;;;;;;6.27;5.43;;;;;;;23.12;88.49;101125.69;5074605;28;20491;-70
2021/09/11 10:13:17;;;;;;;5.60;5.03;;;;;;;23.18;89.20;101121.41;5074571;28;20484;-70
2021/09/11 10:15:56;;;;;;;7.53;6.33;;;;;;;23.31;88.64;101120.00;5074516;28;20438;-70
2021/09/11 10:18:42;;;;;;;8.10;5.97;;;;;;;23.19;87.69;101114.72;5074273;28;20922;-70
2021/09/11 10:21:18;;;;;;;7.37;6.40;;;;;;;23.13;86.35;101113.44;5074518;28;20441;-70
2021/09/11 10:24:23;;;;;;;8.07;5.83;;;;;;;23.25;87.41;101104.16;5074311;28;20552;-70
2021/09/11 10:26:52;;;;;;;6.93;5.90;;;;;;;23.48;87.06;101106.81;5073573;28;20870;-70
2021/09/11 10:29:43;;;;;;;7.57;5.13;;;;;;;23.53;87.22;101110.03;5074095;28;20445;-72
2021/09/11 10:32:14;;;;;;;7.03;5.70;;;;;;;23.57;87.30;101101.78;5074227;28;20484;-70
2021/09/11 10:34:46;;;;;;;6.33;5.37;;;;;;;23.64;88.38;101104.59;5074096;28;20453;-70
2021/09/11 10:37:13;;;;;;;6.87;4.80;;;;;;;23.72;85.82;101109.09;5074083;28;20445;-70
2021/09/11 10:39:40;;;;;;;7.93;4.80;;;;;;;23.62;85.13;101109.72;5073739;28;20445;-70
2021/09/11 10:42:08;;;;;;;3.87;3.47;;;;;;;23.67;83.14;101123.25;5073916;28;20548;-72
2021/09/11 10:44:39;;;;;;;6.30;4.80;;;;;;;23.69;83.59;101112.63;5073928;28;20441;-70
2021/09/11 10:47:07;;;;;;;5.20;4.20;;;;;;;23.74;83.88;101111.50;5074095;28;20432;-70
2021/09/11 10:49:35;;;;;;;8.30;3.80;;;;;;;23.87;84.02;101105.31;5073885;28;20448;-70
2021/09/11 10:52:04;;;;;;;5.23;4.20;;;;;;;24.04;85.33;101108.63;5073486;28;21010;-70
2021/09/11 10:54:32;;;;;;;4.40;3.87;;;;;;;24.09;84.44;101105.53;5074015;28;20456;-70
2021/09/11 10:57:09;;;;;;;4.23;3.83;;;;;;;24.06;83.95;101111.81;5073092;28;21004;-72
2021/09/11 10:59:43;;;;;;;4.13;3.73;;;;;;;24.16;83.60;101100.84;5073740;28;20417;-70
2021/09/11 11:02:14;;;;;;;4.43;3.50;;;;;;;24.00;80.89;101096.75;5073562;28;20488;-70
2021/09/11 11:04:53;;;;;;;4.93;3.50;;;;;;;24.07;80.75;101094.03;5073649;28;20430;-70
2021/09/11 11:07:22;;;;;;;4.97;3.50;;;;;;;24.16;81.50;101094.50;5073304;28;20926;-69
2021/09/11 11:09:50;;;;;;;4.03;3.13;;;;;;;24.25;81.03;101091.44;5073525;28;20871;-71
2021/09/11 11:12:21;;;;;;;4.30;3.30;;;;;;;24.27;81.11;101094.63;5073378;28;20481;-70
2021/09/11 11:14:47;;;;;;;4.87;3.43;;;;;;;24.51;80.68;101093.25;5073447;28;20902;-70